Time;durP1;ratioP1;P1;durP2;ratioP2;P2;SDS_P1;SDS_P2;PMS_P1;PMS_P2;Temp;Humidity;BMP_temperature;BMP_pressure;BME280_temperature;BME280_humidity;BME280_pressure;Samples;Min_cycle;Max_cycle;Signal;HPM_P1;HPM_P2
2023/08/01 00:02:25;;;;;;;;;;;24.50;58.40;;;;;;5157211;27;19917;-35
2023/08/01 00:04:50;;;;;;;;;;;24.50;58.70;;;;;;5149038;27;20253;-35
2023/08/01 00:07:16;;;;;;;;;;;24.50;58.80;;;;;;5160734;27;19911;-34
2023/08/01 00:09:42;;;;;;;;;;;24.50;58.70;;;;;;5155052;27;19915;-35
2023/08/01 00:12:08;;;;;;;;;;;24.40;58.80;;;;;;5150306;27;19915;-36
2023/08/01 00:14:35;;;;;;;;;;;24.50;59.00;;;;;;5149218;27;19926;-34
2023/08/01 00:17:01;;;;;;;;;;;24.40;59.30;;;;;;5161904;27;19911;-34
2023/08/01 00:19:27;;;;;;;;;;;24.50;59.50;;;;;;5157091;27;20051;-34
2023/08/01 00:21:53;;;;;;;;;;;24.50;59.90;;;;;;5150312;27;19916;-34
2023/08/01 00:24:19;;;;;;;;;;;24.50;60.30;;;;;;5156667;27;19918;-35
2023/08/01 00:26:45;;;;;;;;;;;24.50;60.60;;;;;;5162943;27;19922;-34
2023/08/01 00:29:10;;;;;;;;;;;24.50;61.00;;;;;;5151775;27;19911;-34
2023/08/01 00:31:36;;;;;;;;;;;24.50;61.30;;;;;;5151776;27;19920;-34
2023/08/01 00:34:02;;;;;;;;;;;24.50;61.70;;;;;;5154821;27;19945;-34
2023/08/01 00:36:28;;;;;;;;;;;24.50;61.90;;;;;;5157526;27;20367;-35
2023/08/01 00:38:54;;;;;;;;;;;24.50;62.20;;;;;;5150104;27;19915;-35
2023/08/01 00:41:20;;;;;;;;;;;24.50;62.50;;;;;;5153868;27;19916;-34
2023/08/01 00:43:46;;;;;;;;;;;24.60;62.80;;;;;;5147646;27;19951;-34
2023/08/01 00:46:12;;;;;;;;;;;24.60;63.10;;;;;;5144668;27;20423;-34
2023/08/01 00:48:38;;;;;;;;;;;24.60;63.30;;;;;;5151849;27;19959;-35
2023/08/01 00:51:04;;;;;;;;;;;24.60;63.60;;;;;;5158172;27;19923;-35
2023/08/01 00:53:30;;;;;;;;;;;24.60;63.80;;;;;;5154708;27;20391;-34
2023/08/01 00:55:56;;;;;;;;;;;24.60;64.10;;;;;;5143539;27;19941;-34
2023/08/01 00:58:22;;;;;;;;;;;24.60;64.50;;;;;;5156408;27;19911;-34
2023/08/01 01:00:48;;;;;;;;;;;24.60;64.70;;;;;;5153521;27;19962;-35
2023/08/01 01:03:14;;;;;;;;;;;24.70;64.90;;;;;;5151086;27;19922;-34
2023/08/01 01:05:42;;;;;;;;;;;24.70;65.10;;;;;;5146322;27;19968;-34
2023/08/01 01:08:07;;;;;;;;;;;24.70;65.00;;;;;;5151754;27;19911;-35
2023/08/01 01:10:33;;;;;;;;;;;24.70;65.10;;;;;;5144719;27;19951;-35
2023/08/01 01:12:59;;;;;;;;;;;24.70;65.10;;;;;;5154963;27;20626;-35
2023/08/01 01:15:25;;;;;;;;;;;24.70;65.20;;;;;;5148753;27;19915;-35
2023/08/01 01:17:51;;;;;;;;;;;24.70;65.30;;;;;;5145070;27;20006;-34
2023/08/01 01:20:26;;;;;;;;;;;24.80;65.50;;;;;;5163258;27;19915;-35
2023/08/01 01:22:52;;;;;;;;;;;24.80;65.50;;;;;;5155911;27;20595;-34
2023/08/01 01:25:19;;;;;;;;;;;24.80;65.60;;;;;;5150961;27;19915;-34
2023/08/01 01:27:45;;;;;;;;;;;24.80;65.60;;;;;;5157896;27;19915;-34
2023/08/01 01:30:11;;;;;;;;;;;24.80;65.70;;;;;;5155575;27;19944;-35
2023/08/01 01:32:37;;;;;;;;;;;24.80;65.70;;;;;;5165417;27;19915;-34
2023/08/01 01:35:04;;;;;;;;;;;24.80;65.80;;;;;;5142548;27;19930;-34
2023/08/01 01:37:29;;;;;;;;;;;24.80;66.00;;;;;;5112056;28;19985;-34
2023/08/01 01:39:55;;;;;;;;;;;24.80;66.10;;;;;;5135916;27;20595;-34
2023/08/01 01:42:21;;;;;;;;;;;24.80;66.10;;;;;;5134853;27;19957;-34
2023/08/01 01:44:47;;;;;;;;;;;24.80;66.30;;;;;;5141422;27;19915;-34
2023/08/01 01:47:13;;;;;;;;;;;24.90;66.30;;;;;;5141184;27;19915;-34
2023/08/01 01:49:39;;;;;;;;;;;24.90;66.40;;;;;;5127188;27;19919;-34
2023/08/01 01:52:05;;;;;;;;;;;24.90;66.40;;;;;;5133073;27;19974;-34
2023/08/01 01:54:31;;;;;;;;;;;24.90;66.50;;;;;;5127099;27;19923;-34
2023/08/01 01:56:56;;;;;;;;;;;24.90;66.50;;;;;;5128475;27;19920;-34
2023/08/01 01:59:22;;;;;;;;;;;24.90;66.50;;;;;;5134590;27;19950;-34
2023/08/01 02:01:48;;;;;;;;;;;24.90;66.50;;;;;;5128694;27;19920;-34
2023/08/01 02:04:14;;;;;;;;;;;24.90;66.60;;;;;;5108808;28;19920;-34
2023/08/01 02:06:40;;;;;;;;;;;24.90;66.70;;;;;;5135098;27;19915;-34
2023/08/01 02:09:06;;;;;;;;;;;24.90;66.70;;;;;;5142133;27;19943;-34
2023/08/01 02:11:32;;;;;;;;;;;25.00;66.80;;;;;;5128250;27;19958;-34
2023/08/01 02:13:58;;;;;;;;;;;24.90;66.70;;;;;;5130270;27;20126;-35
2023/08/01 02:16:24;;;;;;;;;;;24.90;67.50;;;;;;5130800;27;19915;-34
2023/08/01 02:18:49;;;;;;;;;;;25.00;66.90;;;;;;5134983;27;19912;-34
2023/08/01 02:21:15;;;;;;;;;;;25.00;66.90;;;;;;5127894;27;19916;-34
2023/08/01 02:23:41;;;;;;;;;;;25.00;67.00;;;;;;5126188;27;19916;-34
2023/08/01 02:26:08;;;;;;;;;;;25.00;67.10;;;;;;5133950;27;20419;-34
2023/08/01 02:28:34;;;;;;;;;;;25.00;67.00;;;;;;5137853;27;19915;-35
2023/08/01 02:31:00;;;;;;;;;;;25.00;67.10;;;;;;5129085;27;20380;-34
2023/08/01 02:33:25;;;;;;;;;;;25.00;67.10;;;;;;5135292;27;20010;-34
2023/08/01 02:35:51;;;;;;;;;;;25.00;67.10;;;;;;5152125;27;19946;-34
2023/08/01 02:38:17;;;;;;;;;;;25.00;67.20;;;;;;5147333;27;19922;-34
2023/08/01 02:40:43;;;;;;;;;;;25.00;67.20;;;;;;5153604;27;19915;-35
2023/08/01 02:43:09;;;;;;;;;;;25.00;67.30;;;;;;5152374;27;20360;-34
2023/08/01 02:45:35;;;;;;;;;;;25.00;67.30;;;;;;5153240;27;20023;-34
2023/08/01 02:48:01;;;;;;;;;;;25.00;67.30;;;;;;5153914;27;19918;-34
2023/08/01 02:50:26;;;;;;;;;;;25.00;67.30;;;;;;5145976;27;19915;-34
2023/08/01 02:52:52;;;;;;;;;;;25.00;67.40;;;;;;5152389;27;19911;-35
2023/08/01 02:55:18;;;;;;;;;;;25.00;67.50;;;;;;5145944;27;20402;-34
2023/08/01 02:57:44;;;;;;;;;;;25.00;67.40;;;;;;5145842;27;20288;-34
2023/08/01 03:00:11;;;;;;;;;;;25.00;67.40;;;;;;5145065;27;19966;-34
2023/08/01 03:02:38;;;;;;;;;;;25.00;67.50;;;;;;5152962;27;19915;-34
2023/08/01 03:05:05;;;;;;;;;;;25.00;67.60;;;;;;5144582;27;19933;-34
2023/08/01 03:07:31;;;;;;;;;;;25.00;67.60;;;;;;5145769;27;19971;-34
2023/08/01 03:09:57;;;;;;;;;;;25.00;67.50;;;;;;5145052;27;19949;-34
2023/08/01 03:12:23;;;;;;;;;;;25.00;67.60;;;;;;5147472;27;19923;-34
2023/08/01 03:14:49;;;;;;;;;;;25.00;67.60;;;;;;5161644;27;20360;-34
2023/08/01 03:17:15;;;;;;;;;;;25.00;67.70;;;;;;5152336;27;19915;-34
2023/08/01 03:19:41;;;;;;;;;;;25.00;67.70;;;;;;5160572;27;19908;-34
2023/08/01 03:22:07;;;;;;;;;;;25.00;67.70;;;;;;5154034;27;19920;-34
2023/08/01 03:24:33;;;;;;;;;;;25.00;67.70;;;;;;5156001;27;19915;-34
2023/08/01 03:26:59;;;;;;;;;;;25.00;67.60;;;;;;5145724;27;19919;-34
2023/08/01 03:29:25;;;;;;;;;;;25.00;67.60;;;;;;5154587;27;19918;-34
2023/08/01 03:31:50;;;;;;;;;;;25.00;67.50;;;;;;5161981;27;19922;-35
2023/08/01 03:34:16;;;;;;;;;;;25.00;67.40;;;;;;5144365;27;19926;-35
2023/08/01 03:36:42;;;;;;;;;;;25.00;67.30;;;;;;5154136;27;19950;-34
2023/08/01 03:39:09;;;;;;;;;;;25.00;67.40;;;;;;5144509;27;20451;-34
2023/08/01 03:41:36;;;;;;;;;;;25.00;67.30;;;;;;5149902;27;19922;-34
2023/08/01 03:44:02;;;;;;;;;;;25.00;67.50;;;;;;5144152;27;19915;-34
2023/08/01 03:46:28;;;;;;;;;;;25.00;67.60;;;;;;5144492;27;19923;-34
2023/08/01 03:48:54;;;;;;;;;;;25.00;67.50;;;;;;5152637;27;20303;-34
2023/08/01 03:51:20;;;;;;;;;;;25.00;67.60;;;;;;5156833;27;19992;-34
2023/08/01 03:53:46;;;;;;;;;;;25.00;67.60;;;;;;5154225;27;19920;-34
2023/08/01 03:56:12;;;;;;;;;;;25.00;67.60;;;;;;5144423;27;19993;-34
2023/08/01 03:58:38;;;;;;;;;;;25.00;67.70;;;;;;5148125;27;19972;-34
2023/08/01 04:01:06;;;;;;;;;;;25.00;67.60;;;;;;5150056;27;19919;-34
2023/08/01 04:03:32;;;;;;;;;;;25.00;67.50;;;;;;5148660;27;19911;-34
2023/08/01 04:05:58;;;;;;;;;;;25.00;67.50;;;;;;5144216;27;19958;-34
2023/08/01 04:08:24;;;;;;;;;;;25.00;67.50;;;;;;5152377;27;20366;-34
2023/08/01 04:10:50;;;;;;;;;;;25.00;67.40;;;;;;5152531;27;19919;-34
2023/08/01 04:13:16;;;;;;;;;;;25.00;67.30;;;;;;5148019;27;19983;-34
2023/08/01 04:15:42;;;;;;;;;;;25.00;67.30;;;;;;5152243;27;19926;-34
2023/08/01 04:18:08;;;;;;;;;;;25.00;67.10;;;;;;5160322;27;19923;-34
2023/08/01 04:20:33;;;;;;;;;;;24.90;67.20;;;;;;5154931;27;19916;-34
2023/08/01 04:22:59;;;;;;;;;;;25.00;67.30;;;;;;5144908;27;19950;-34
2023/08/01 04:25:26;;;;;;;;;;;24.90;67.30;;;;;;5156212;27;19911;-34
2023/08/01 04:27:52;;;;;;;;;;;25.00;67.50;;;;;;5157498;27;19911;-34
2023/08/01 04:30:18;;;;;;;;;;;25.00;67.40;;;;;;5151189;27;19996;-35
2023/08/01 04:32:44;;;;;;;;;;;25.00;67.40;;;;;;5154533;27;19927;-35
2023/08/01 04:35:10;;;;;;;;;;;25.00;67.40;;;;;;5155457;27;19990;-34
2023/08/01 04:37:36;;;;;;;;;;;24.90;67.50;;;;;;5153263;27;20484;-34
2023/08/01 04:40:02;;;;;;;;;;;24.90;67.60;;;;;;5146283;27;20358;-34
2023/08/01 04:42:28;;;;;;;;;;;24.90;67.60;;;;;;5151422;27;19915;-34
2023/08/01 04:44:54;;;;;;;;;;;24.90;67.50;;;;;;5152323;27;19947;-38
2023/08/01 04:47:20;;;;;;;;;;;24.90;67.10;;;;;;5149514;27;19919;-34
2023/08/01 04:49:46;;;;;;;;;;;24.90;67.30;;;;;;5146794;27;19918;-34
2023/08/01 04:52:12;;;;;;;;;;;24.90;67.30;;;;;;5155296;27;19950;-34
2023/08/01 04:54:38;;;;;;;;;;;24.90;67.30;;;;;;5151440;27;20644;-34
2023/08/01 04:57:04;;;;;;;;;;;24.90;67.10;;;;;;5159246;27;19911;-35
2023/08/01 04:59:30;;;;;;;;;;;24.90;67.20;;;;;;5156374;27;20356;-34
2023/08/01 05:01:56;;;;;;;;;;;24.90;67.00;;;;;;5157055;27;19936;-34
2023/08/01 05:04:22;;;;;;;;;;;24.90;67.00;;;;;;5158848;27;20002;-34
2023/08/01 05:06:48;;;;;;;;;;;24.90;67.30;;;;;;5151797;27;19922;-34
2023/08/01 05:09:14;;;;;;;;;;;24.80;67.40;;;;;;5148472;27;19971;-35
2023/08/01 05:11:40;;;;;;;;;;;24.90;67.50;;;;;;5156830;27;19916;-34
2023/08/01 05:14:06;;;;;;;;;;;24.90;67.60;;;;;;5148857;27;19983;-35
2023/08/01 05:16:32;;;;;;;;;;;24.90;67.60;;;;;;5148624;27;19976;-34
2023/08/01 05:18:57;;;;;;;;;;;24.90;67.60;;;;;;5155872;27;19914;-34
2023/08/01 05:21:23;;;;;;;;;;;24.80;67.60;;;;;;5160235;27;20677;-35
2023/08/01 05:23:49;;;;;;;;;;;24.80;67.60;;;;;;5157309;27;19919;-35
2023/08/01 05:26:15;;;;;;;;;;;24.80;67.60;;;;;;5160027;27;19911;-34
2023/08/01 05:28:41;;;;;;;;;;;24.80;67.60;;;;;;5166322;27;19942;-34
2023/08/01 05:31:07;;;;;;;;;;;24.80;67.50;;;;;;5158690;27;19918;-34
2023/08/01 05:33:33;;;;;;;;;;;24.80;67.50;;;;;;5162153;27;20010;-35
2023/08/01 05:35:59;;;;;;;;;;;24.80;67.20;;;;;;5163921;27;19919;-34
2023/08/01 05:38:24;;;;;;;;;;;24.80;67.40;;;;;;5153184;27;19919;-35
2023/08/01 05:40:50;;;;;;;;;;;24.80;67.30;;;;;;5163630;27;19940;-34
2023/08/01 05:43:16;;;;;;;;;;;24.80;67.20;;;;;;5161188;27;20388;-34
2023/08/01 05:45:42;;;;;;;;;;;24.80;67.30;;;;;;5165259;27;19975;-34
2023/08/01 05:48:08;;;;;;;;;;;24.80;67.30;;;;;;5152501;27;19915;-34
2023/08/01 05:50:34;;;;;;;;;;;24.80;67.40;;;;;;5160940;27;19915;-34
2023/08/01 05:53:00;;;;;;;;;;;24.80;67.30;;;;;;5157664;27;19974;-34
2023/08/01 05:55:25;;;;;;;;;;;24.80;67.30;;;;;;5157662;27;19921;-34
2023/08/01 05:57:52;;;;;;;;;;;24.80;67.60;;;;;;5155472;27;19911;-34
2023/08/01 06:00:21;;;;;;;;;;;24.80;67.50;;;;;;5158647;27;19915;-34
2023/08/01 06:02:47;;;;;;;;;;;24.80;67.50;;;;;;5149897;27;19912;-34
2023/08/01 06:05:13;;;;;;;;;;;24.80;67.60;;;;;;5153096;27;19996;-34
2023/08/01 06:07:39;;;;;;;;;;;24.70;67.60;;;;;;5155568;27;19915;-34
2023/08/01 06:10:05;;;;;;;;;;;24.70;67.50;;;;;;5154898;27;19915;-34
2023/08/01 06:12:31;;;;;;;;;;;24.70;67.50;;;;;;5156581;27;19920;-34
2023/08/01 06:14:57;;;;;;;;;;;24.70;67.30;;;;;;5154956;27;19927;-33
2023/08/01 06:17:23;;;;;;;;;;;24.70;67.30;;;;;;5159306;27;19922;-34
2023/08/01 06:19:49;;;;;;;;;;;24.70;67.30;;;;;;5156305;27;19922;-34
2023/08/01 06:22:15;;;;;;;;;;;24.70;67.40;;;;;;5147965;27;19918;-34
2023/08/01 06:24:41;;;;;;;;;;;24.70;67.90;;;;;;5161506;27;19915;-34
2023/08/01 06:27:07;;;;;;;;;;;24.70;67.40;;;;;;5149836;27;19918;-34
2023/08/01 06:29:33;;;;;;;;;;;24.70;67.50;;;;;;5161614;27;19929;-34
2023/08/01 06:31:59;;;;;;;;;;;24.70;67.40;;;;;;5154751;27;19953;-34
2023/08/01 06:34:25;;;;;;;;;;;24.70;67.40;;;;;;5163404;27;19919;-34
2023/08/01 06:36:50;;;;;;;;;;;24.60;67.40;;;;;;5157873;27;19966;-34
2023/08/01 06:39:16;;;;;;;;;;;24.60;67.40;;;;;;5153188;27;20395;-34
2023/08/01 06:41:42;;;;;;;;;;;24.60;67.50;;;;;;5158410;27;19911;-34
2023/08/01 06:44:08;;;;;;;;;;;24.60;67.60;;;;;;5160881;27;19943;-34
2023/08/01 06:46:34;;;;;;;;;;;24.60;67.60;;;;;;5153271;27;19926;-34
2023/08/01 06:49:00;;;;;;;;;;;24.60;67.60;;;;;;5160956;27;19919;-34
2023/08/01 06:51:26;;;;;;;;;;;24.60;67.70;;;;;;5156356;27;21109;-34
2023/08/01 06:53:51;;;;;;;;;;;24.60;67.60;;;;;;5156919;27;19927;-34
2023/08/01 06:56:18;;;;;;;;;;;24.60;67.70;;;;;;5157612;27;19915;-35
2023/08/01 06:58:43;;;;;;;;;;;24.60;67.70;;;;;;5148663;27;20384;-34
2023/08/01 07:01:09;;;;;;;;;;;24.60;67.70;;;;;;5153250;27;19919;-34
2023/08/01 07:03:35;;;;;;;;;;;24.60;67.80;;;;;;5157758;27;19964;-34
2023/08/01 07:06:01;;;;;;;;;;;24.60;67.70;;;;;;5158261;27;19915;-34
2023/08/01 07:08:27;;;;;;;;;;;24.60;67.80;;;;;;5164903;27;19922;-34
2023/08/01 07:10:53;;;;;;;;;;;24.50;67.80;;;;;;5162943;27;19962;-35
2023/08/01 07:13:19;;;;;;;;;;;24.50;67.90;;;;;;5155132;27;19916;-34
2023/08/01 07:15:46;;;;;;;;;;;24.50;68.00;;;;;;5145608;27;19920;-34
2023/08/01 07:18:12;;;;;;;;;;;24.50;68.00;;;;;;5144687;27;19916;-34
2023/08/01 07:20:38;;;;;;;;;;;24.50;68.00;;;;;;5147445;27;19915;-34
2023/08/01 07:23:03;;;;;;;;;;;24.50;68.00;;;;;;5155758;27;19937;-34
2023/08/01 07:25:29;;;;;;;;;;;24.50;68.10;;;;;;5157651;27;19923;-36
2023/08/01 07:27:55;;;;;;;;;;;24.50;68.20;;;;;;5161616;27;19911;-34
2023/08/01 07:30:21;;;;;;;;;;;24.50;68.10;;;;;;5160727;27;19922;-34
2023/08/01 07:32:47;;;;;;;;;;;24.50;68.20;;;;;;5148570;27;19986;-35
2023/08/01 07:35:13;;;;;;;;;;;24.50;68.20;;;;;;5152551;27;19993;-34
2023/08/01 07:37:39;;;;;;;;;;;24.50;68.20;;;;;;5155016;27;19915;-35
2023/08/01 07:40:08;;;;;;;;;;;24.50;68.20;;;;;;5153338;27;19929;-34
2023/08/01 07:42:34;;;;;;;;;;;24.50;68.30;;;;;;5155248;27;19955;-34
2023/08/01 07:45:20;;;;;;;;;;;24.50;68.20;;;;;;5153425;27;19919;-34
2023/08/01 07:47:46;;;;;;;;;;;24.40;68.30;;;;;;5079557;28;19946;-34
2023/08/01 07:50:12;;;;;;;;;;;24.40;68.30;;;;;;5091577;28;20420;-34
2023/08/01 07:52:38;;;;;;;;;;;24.40;68.30;;;;;;5100535;28;19963;-34
2023/08/01 07:55:04;;;;;;;;;;;24.40;68.40;;;;;;5100018;28;19931;-34
2023/08/01 07:57:30;;;;;;;;;;;24.40;68.40;;;;;;5098629;28;20008;-34
2023/08/01 07:59:55;;;;;;;;;;;24.40;68.40;;;;;;5100057;28;20454;-34
2023/08/01 08:02:21;;;;;;;;;;;24.40;68.50;;;;;;5099945;28;19919;-34
2023/08/01 08:04:47;;;;;;;;;;;24.40;69.20;;;;;;5098718;28;19951;-34
2023/08/01 08:07:13;;;;;;;;;;;24.40;68.50;;;;;;5099375;28;19935;-34
2023/08/01 08:09:39;;;;;;;;;;;24.40;68.50;;;;;;5100244;28;19916;-34
2023/08/01 08:12:05;;;;;;;;;;;24.40;68.60;;;;;;5099746;28;19923;-34
2023/08/01 08:14:31;;;;;;;;;;;24.30;68.70;;;;;;5099842;28;19920;-34
2023/08/01 08:16:57;;;;;;;;;;;24.30;68.60;;;;;;5099898;28;19920;-35
2023/08/01 08:19:25;;;;;;;;;;;24.30;68.70;;;;;;5100095;28;19983;-34
2023/08/01 08:21:51;;;;;;;;;;;24.30;68.80;;;;;;5098769;28;19945;-34
2023/08/01 08:24:16;;;;;;;;;;;24.30;68.80;;;;;;5113888;27;19969;-35
2023/08/01 08:26:42;;;;;;;;;;;24.30;68.80;;;;;;5147361;27;19915;-34
2023/08/01 08:29:08;;;;;;;;;;;24.30;68.80;;;;;;5155583;27;19918;-34
2023/08/01 08:31:34;;;;;;;;;;;24.30;68.80;;;;;;5145105;27;19918;-34
2023/08/01 08:34:00;;;;;;;;;;;24.30;68.80;;;;;;5153874;27;19938;-34
2023/08/01 08:36:26;;;;;;;;;;;24.30;68.80;;;;;;5152150;27;19950;-34
2023/08/01 08:38:52;;;;;;;;;;;24.30;68.80;;;;;;5153004;27;19916;-34
2023/08/01 08:41:21;;;;;;;;;;;24.30;68.80;;;;;;5155111;27;19922;-34
2023/08/01 08:43:47;;;;;;;;;;;24.30;68.90;;;;;;5161097;27;20007;-34
2023/08/01 08:46:15;;;;;;;;;;;24.30;68.90;;;;;;5161643;27;19978;-34
2023/08/01 08:48:41;;;;;;;;;;;24.20;69.00;;;;;;5153355;27;19915;-34
2023/08/01 08:51:07;;;;;;;;;;;24.30;69.10;;;;;;5146047;27;19929;-34
2023/08/01 08:53:33;;;;;;;;;;;24.20;69.00;;;;;;5157922;27;19922;-34
2023/08/01 08:55:59;;;;;;;;;;;24.20;69.00;;;;;;5151790;27;19915;-35
2023/08/01 08:58:25;;;;;;;;;;;24.20;69.00;;;;;;5151932;27;20276;-35
2023/08/01 09:00:51;;;;;;;;;;;24.20;69.00;;;;;;5153422;27;20360;-34
2023/08/01 09:03:17;;;;;;;;;;;24.20;69.00;;;;;;5151333;27;19916;-34
2023/08/01 09:05:48;;;;;;;;;;;24.20;69.00;;;;;;5147801;27;19915;-34
2023/08/01 09:08:20;;;;;;;;;;;24.20;69.00;;;;;;5163056;27;19975;-34
2023/08/01 09:10:46;;;;;;;;;;;24.20;69.20;;;;;;5154396;27;19911;-34
2023/08/01 09:13:12;;;;;;;;;;;24.20;69.10;;;;;;5149978;27;20020;-34
2023/08/01 09:15:39;;;;;;;;;;;24.10;69.00;;;;;;5144357;27;19978;-34
2023/08/01 09:18:08;;;;;;;;;;;24.10;69.10;;;;;;5154377;27;19915;-34
2023/08/01 09:20:44;;;;;;;;;;;24.10;69.20;;;;;;5154168;27;19911;-35
2023/08/01 09:23:11;;;;;;;;;;;24.10;69.30;;;;;;5159213;27;19915;-35
2023/08/01 09:25:37;;;;;;;;;;;24.10;69.20;;;;;;5144364;27;19958;-35
2023/08/01 09:28:03;;;;;;;;;;;24.10;69.40;;;;;;5159435;27;19916;-34
2023/08/01 09:30:29;;;;;;;;;;;24.10;69.30;;;;;;5158959;27;19922;-34
2023/08/01 09:32:55;;;;;;;;;;;24.10;69.20;;;;;;5154186;27;20306;-34
2023/08/01 09:35:21;;;;;;;;;;;24.10;69.40;;;;;;5146772;27;19962;-34
2023/08/01 09:37:47;;;;;;;;;;;24.10;69.50;;;;;;5159014;27;19937;-34
2023/08/01 09:40:13;;;;;;;;;;;24.10;69.30;;;;;;5158179;27;19916;-34
2023/08/01 09:42:42;;;;;;;;;;;24.10;69.40;;;;;;5159753;27;19915;-34
2023/08/01 09:45:12;;;;;;;;;;;24.10;69.30;;;;;;5155508;27;19915;-35
2023/08/01 09:47:37;;;;;;;;;;;24.10;69.40;;;;;;5151090;27;19914;-34
2023/08/01 09:50:03;;;;;;;;;;;24.00;69.30;;;;;;5149951;27;19923;-34
2023/08/01 09:52:29;;;;;;;;;;;24.00;69.40;;;;;;5157301;27;19953;-34
2023/08/01 09:54:55;;;;;;;;;;;24.00;69.40;;;;;;5156567;27;19966;-34
2023/08/01 09:57:21;;;;;;;;;;;24.00;69.40;;;;;;5147922;27;20002;-34
2023/08/01 09:59:47;;;;;;;;;;;24.00;69.40;;;;;;5160326;27;19915;-34
2023/08/01 10:02:15;;;;;;;;;;;24.00;69.40;;;;;;5158137;27;19915;-34
2023/08/01 10:04:40;;;;;;;;;;;24.00;69.50;;;;;;5162073;27;19974;-34
2023/08/01 10:07:08;;;;;;;;;;;24.00;69.50;;;;;;5162517;27;19915;-34
2023/08/01 10:09:35;;;;;;;;;;;24.00;69.50;;;;;;5158855;27;19920;-34
2023/08/01 10:12:01;;;;;;;;;;;24.00;69.60;;;;;;5149383;27;19919;-34
2023/08/01 10:14:27;;;;;;;;;;;24.00;69.60;;;;;;5157660;27;19930;-34
2023/08/01 10:16:52;;;;;;;;;;;24.00;69.60;;;;;;5148886;27;19955;-34
2023/08/01 10:19:18;;;;;;;;;;;24.00;69.60;;;;;;5155760;27;19915;-34
2023/08/01 10:21:44;;;;;;;;;;;24.00;69.60;;;;;;5147247;27;20423;-34
2023/08/01 10:24:10;;;;;;;;;;;24.00;69.60;;;;;;5155256;27;19919;-34
2023/08/01 10:26:36;;;;;;;;;;;23.90;69.60;;;;;;5154289;27;19922;-34
2023/08/01 10:29:02;;;;;;;;;;;23.90;69.50;;;;;;5146986;27;19915;-34
2023/08/01 10:31:28;;;;;;;;;;;23.90;69.60;;;;;;5153463;27;19915;-34
2023/08/01 10:34:03;;;;;;;;;;;23.90;69.70;;;;;;5156656;27;19930;-35
2023/08/01 10:36:31;;;;;;;;;;;23.90;69.60;;;;;;5154072;27;19916;-35
2023/08/01 10:38:57;;;;;;;;;;;23.90;69.60;;;;;;5147126;27;19916;-34
2023/08/01 10:41:27;;;;;;;;;;;23.90;69.60;;;;;;5155271;27;19922;-34
2023/08/01 10:44:13;;;;;;;;;;;23.90;69.80;;;;;;5153223;27;19933;-34
2023/08/01 10:47:05;;;;;;;;;;;23.90;69.70;;;;;;5156667;27;19915;-34
2023/08/01 10:49:35;;;;;;;;;;;23.90;69.80;;;;;;5155512;27;19912;-34
2023/08/01 10:52:01;;;;;;;;;;;23.90;69.70;;;;;;5148598;27;19915;-34
2023/08/01 10:54:27;;;;;;;;;;;23.90;69.90;;;;;;5152372;27;20636;-34
2023/08/01 10:56:54;;;;;;;;;;;23.80;69.80;;;;;;5155655;27;19917;-34
2023/08/01 10:59:20;;;;;;;;;;;23.80;69.80;;;;;;5155391;27;19919;-34
2023/08/01 11:01:50;;;;;;;;;;;23.80;69.80;;;;;;5147860;27;19911;-34
2023/08/01 11:04:17;;;;;;;;;;;23.80;69.90;;;;;;5146203;27;19912;-34
2023/08/01 11:06:43;;;;;;;;;;;23.80;69.80;;;;;;5150665;27;19914;-35
2023/08/01 11:09:19;;;;;;;;;;;23.80;69.90;;;;;;5148621;27;19970;-34
2023/08/01 11:11:45;;;;;;;;;;;23.80;69.90;;;;;;5161118;27;19911;-34
2023/08/01 11:14:12;;;;;;;;;;;23.80;69.90;;;;;;5152932;27;19927;-34
2023/08/01 11:16:38;;;;;;;;;;;23.80;70.00;;;;;;5145748;27;19911;-34
2023/08/01 11:19:04;;;;;;;;;;;23.80;70.00;;;;;;5154837;27;19912;-34
2023/08/01 11:21:30;;;;;;;;;;;23.80;70.00;;;;;;5157229;27;19942;-34
2023/08/01 11:23:56;;;;;;;;;;;23.80;70.00;;;;;;5161294;27;19971;-34
2023/08/01 11:26:22;;;;;;;;;;;23.80;70.10;;;;;;5144954;27;19911;-34
2023/08/01 11:28:48;;;;;;;;;;;23.80;70.00;;;;;;5158308;27;19918;-34
2023/08/01 11:31:14;;;;;;;;;;;23.70;70.00;;;;;;5155971;27;19947;-34
2023/08/01 11:33:39;;;;;;;;;;;23.70;70.10;;;;;;5145244;27;19919;-34
2023/08/01 11:36:05;;;;;;;;;;;23.70;70.10;;;;;;5152261;27;19943;-34
2023/08/01 11:38:33;;;;;;;;;;;23.70;70.00;;;;;;5156335;27;19914;-34
2023/08/01 11:40:59;;;;;;;;;;;23.70;70.10;;;;;;5148581;27;19935;-34
2023/08/01 11:43:25;;;;;;;;;;;23.70;70.20;;;;;;5145472;27;20352;-34
2023/08/01 11:45:51;;;;;;;;;;;23.70;70.10;;;;;;5145689;27;19916;-34
2023/08/01 11:48:16;;;;;;;;;;;23.70;70.20;;;;;;5163103;27;19915;-34
2023/08/01 11:50:43;;;;;;;;;;;23.70;70.20;;;;;;5157029;27;19907;-34
2023/08/01 11:53:19;;;;;;;;;;;23.70;70.20;;;;;;5152976;27;19915;-34
2023/08/01 11:55:45;;;;;;;;;;;23.70;70.20;;;;;;5148258;27;19926;-34
2023/08/01 11:58:10;;;;;;;;;;;23.70;70.30;;;;;;5149090;27;19919;-34
2023/08/01 12:00:36;;;;;;;;;;;23.70;70.30;;;;;;5157195;27;19907;-34
2023/08/01 12:03:06;;;;;;;;;;;23.70;70.30;;;;;;5144897;27;19970;-34
2023/08/01 12:05:32;;;;;;;;;;;23.70;70.30;;;;;;5145301;27;19908;-34
2023/08/01 12:08:07;;;;;;;;;;;23.70;70.30;;;;;;5152901;27;19914;-34
2023/08/01 12:10:43;;;;;;;;;;;23.60;70.20;;;;;;5144354;27;19958;-34
2023/08/01 12:13:30;;;;;;;;;;;23.60;70.30;;;;;;5147641;27;19915;-34
2023/08/01 12:15:56;;;;;;;;;;;23.60;70.30;;;;;;5159441;27;19926;-34
2023/08/01 12:18:22;;;;;;;;;;;23.60;70.30;;;;;;5144154;27;19911;-34
2023/08/01 12:20:48;;;;;;;;;;;23.60;70.40;;;;;;5159167;27;19915;-34
2023/08/01 12:23:14;;;;;;;;;;;23.60;70.50;;;;;;5154570;27;19917;-34
2023/08/01 12:25:40;;;;;;;;;;;23.60;70.50;;;;;;5147873;27;19908;-34
2023/08/01 12:28:06;;;;;;;;;;;23.60;70.40;;;;;;5144972;27;20562;-34
2023/08/01 12:30:32;;;;;;;;;;;23.60;70.50;;;;;;5148915;27;20682;-34
2023/08/01 12:32:57;;;;;;;;;;;23.60;70.50;;;;;;5153049;27;19919;-34
2023/08/01 12:35:23;;;;;;;;;;;23.60;70.50;;;;;;5162350;27;19956;-34
2023/08/01 12:37:51;;;;;;;;;;;23.60;70.40;;;;;;5144668;27;19934;-34
2023/08/01 12:40:17;;;;;;;;;;;23.60;70.40;;;;;;5162539;27;19922;-34
2023/08/01 12:42:43;;;;;;;;;;;23.60;70.50;;;;;;5162110;27;19919;-38
2023/08/01 12:45:09;;;;;;;;;;;23.60;70.60;;;;;;5147730;27;19915;-34
2023/08/01 12:47:35;;;;;;;;;;;23.60;70.70;;;;;;5163303;27;19915;-34
2023/08/01 12:50:01;;;;;;;;;;;23.60;70.70;;;;;;5162892;27;19950;-34
2023/08/01 12:52:27;;;;;;;;;;;23.60;70.70;;;;;;5161294;27;19915;-34
2023/08/01 12:54:53;;;;;;;;;;;23.60;70.70;;;;;;5146097;27;20306;-34
2023/08/01 12:57:19;;;;;;;;;;;23.60;70.70;;;;;;5148769;27;19912;-34
2023/08/01 12:59:45;;;;;;;;;;;23.60;70.70;;;;;;5158200;27;19922;-34
2023/08/01 13:02:10;;;;;;;;;;;23.60;70.80;;;;;;5144528;27;19921;-34
2023/08/01 13:04:36;;;;;;;;;;;23.60;70.80;;;;;;5144181;27;20074;-34
2023/08/01 13:07:02;;;;;;;;;;;23.60;70.80;;;;;;5159496;27;19915;-34
2023/08/01 13:09:28;;;;;;;;;;;23.60;70.80;;;;;;5151030;27;19915;-34
2023/08/01 13:11:56;;;;;;;;;;;23.60;70.80;;;;;;5159461;27;19915;-34
2023/08/01 13:14:23;;;;;;;;;;;23.60;71.50;;;;;;5145301;27;19919;-34
2023/08/01 13:16:49;;;;;;;;;;;23.60;70.90;;;;;;5161753;27;20009;-34
2023/08/01 13:19:14;;;;;;;;;;;23.60;70.80;;;;;;5157525;27;20007;-34
2023/08/01 13:21:40;;;;;;;;;;;23.60;70.80;;;;;;5151256;27;20032;-34
2023/08/01 13:24:06;;;;;;;;;;;23.60;70.80;;;;;;5151414;27;19921;-34
2023/08/01 13:26:32;;;;;;;;;;;23.60;70.80;;;;;;5159553;27;20333;-34
2023/08/01 13:28:58;;;;;;;;;;;23.60;70.70;;;;;;5157286;27;19915;-34
2023/08/01 13:31:24;;;;;;;;;;;23.60;70.80;;;;;;5160071;27;19972;-34
2023/08/01 13:33:50;;;;;;;;;;;23.60;70.80;;;;;;5149238;27;19931;-35
2023/08/01 13:36:17;;;;;;;;;;;23.60;70.80;;;;;;5157350;27;19916;-36
2023/08/01 13:38:43;;;;;;;;;;;23.70;71.00;;;;;;5155390;27;19918;-34
2023/08/01 13:41:09;;;;;;;;;;;23.70;71.10;;;;;;5163016;27;19912;-34
2023/08/01 13:43:35;;;;;;;;;;;23.70;71.20;;;;;;5155058;27;19918;-34
2023/08/01 13:46:01;;;;;;;;;;;23.70;71.30;;;;;;5157387;27;19919;-34
2023/08/01 13:48:27;;;;;;;;;;;23.70;71.50;;;;;;5159008;27;19917;-35
2023/08/01 13:50:53;;;;;;;;;;;23.70;71.50;;;;;;5150974;27;19970;-34
2023/08/01 13:53:19;;;;;;;;;;;23.70;71.60;;;;;;5151729;27;19915;-35
2023/08/01 13:55:44;;;;;;;;;;;23.70;71.60;;;;;;5150185;27;19919;-35
2023/08/01 13:58:10;;;;;;;;;;;23.70;71.70;;;;;;5159840;27;20450;-34
2023/08/01 14:00:36;;;;;;;;;;;23.80;72.00;;;;;;5154897;27;19938;-35
2023/08/01 14:03:02;;;;;;;;;;;23.80;72.00;;;;;;5162506;27;19915;-34
2023/08/01 14:05:28;;;;;;;;;;;23.80;72.20;;;;;;5160917;27;19912;-34
2023/08/01 14:07:54;;;;;;;;;;;23.80;72.20;;;;;;5157548;27;19957;-34
2023/08/01 14:10:21;;;;;;;;;;;23.80;72.20;;;;;;5158746;27;19915;-34
2023/08/01 14:12:47;;;;;;;;;;;23.80;72.30;;;;;;5155447;27;19983;-35